Wheeling, Illinois
Current Conditions -  °F | °C
As of 7:52 PM on Wednesday 22 Oct 2014 (Local Time) from KPWK Reporting Station
Clear Clear  
Wind Chill: 45°   Ceiling: Unl
Heat Index: 45°   Visibility: 10mi
Dew Point: 37°   Wind: 0mph
Humidity: 74%   Direction: NA
Pressure: 30.29"   Gusts: NA
Location:  42.14°N, 87.92°W
Report Text: KPWK 230052Z 00000KT 10SM CLR 07/03 A3029 RMK AO2 SLP259 T00720028
Loading
Personal Weather Stations






























Interactive Weather Map
Tropical Storm Tracking
New forecast layout! Learn more

10-Day Weather Forecast

Advertisements
Track Severe Weather on mobile